Time;durP1;ratioP1;P1;durP2;ratioP2;P2;SDS_P1;SDS_P2;PMS_P1;PMS_P2;Temp;Humidity;BMP_temperature;BMP_pressure;BME280_temperature;BME280_humidity;BME280_pressure;Samples;Min_cycle;Max_cycle;Signal;HPM_P1;HPM_P2
2021/10/15 00:02:13;;;;;;;18.10;3.05;;;;;;;;;;5074300;28;20099;-69
2021/10/15 00:04:39;;;;;;;11.32;2.70;;;;;;;;;;5056494;28;20063;-67
2021/10/15 00:07:05;;;;;;;15.52;2.78;;;;;;;;;;5078618;28;20028;-65
2021/10/15 00:09:31;;;;;;;11.95;2.60;;;;;;;;;;5074374;28;20582;-65
2021/10/15 00:11:57;;;;;;;14.23;2.22;;;;;;;;;;5073150;28;20084;-66
2021/10/15 00:14:23;;;;;;;8.90;2.28;;;;;;;;;;5074240;28;20032;-63
2021/10/15 00:16:49;;;;;;;12.45;2.17;;;;;;;;;;5077069;28;20021;-68
2021/10/15 00:19:15;;;;;;;8.75;2.42;;;;;;;;;;5076244;28;20032;-70
2021/10/15 00:21:41;;;;;;;20.23;2.88;;;;;;;;;;5094376;28;20077;-68
2021/10/15 00:24:07;;;;;;;15.02;2.88;;;;;;;;;;5094473;28;20024;-70
2021/10/15 00:26:34;;;;;;;12.98;2.50;;;;;;;;;;5076000;28;20028;-68
2021/10/15 00:29:00;;;;;;;14.20;2.35;;;;;;;;;;5074227;28;20043;-70
2021/10/15 00:31:26;;;;;;;9.02;2.72;;;;;;;;;;5073872;28;20066;-67
2021/10/15 00:33:52;;;;;;;10.80;2.70;;;;;;;;;;5073820;28;20024;-71
2021/10/15 00:36:18;;;;;;;13.70;2.28;;;;;;;;;;5073750;28;20024;-66
2021/10/15 00:38:44;;;;;;;17.45;2.35;;;;;;;;;;5073305;28;20037;-64
2021/10/15 00:41:10;;;;;;;14.15;2.55;;;;;;;;;;5073395;28;20028;-71
2021/10/15 00:43:36;;;;;;;11.23;2.45;;;;;;;;;;5072930;28;20032;-67
2021/10/15 00:46:02;;;;;;;13.38;2.58;;;;;;;;;;5073926;28;20096;-71
2021/10/15 00:48:27;;;;;;;9.90;2.05;;;;;;;;;;5073748;28;20442;-68
2021/10/15 00:50:54;;;;;;;14.30;2.60;;;;;;;;;;5073164;28;20056;-65
2021/10/15 00:53:20;;;;;;;18.95;2.70;;;;;;;;;;5073530;28;20028;-64
2021/10/15 00:55:46;;;;;;;33.58;2.97;;;;;;;;;;5073058;28;20570;-65
2021/10/15 00:58:12;;;;;;;13.30;2.78;;;;;;;;;;5072923;28;20139;-65
2021/10/15 01:00:38;;;;;;;14.85;2.45;;;;;;;;;;5072127;28;20027;-65
2021/10/15 01:03:04;;;;;;;12.40;2.63;;;;;;;;;;5072856;28;20411;-64
2021/10/15 01:05:30;;;;;;;11.93;2.30;;;;;;;;;;5072821;28;20033;-62
2021/10/15 01:07:57;;;;;;;13.50;2.60;;;;;;;;;;5072918;28;20024;-62
2021/10/15 01:10:25;;;;;;;16.77;2.65;;;;;;;;;;5072890;28;20031;-62
2021/10/15 01:12:51;;;;;;;14.95;2.45;;;;;;;;;;5072798;28;20036;-63
2021/10/15 01:15:17;;;;;;;22.33;2.42;;;;;;;;;;5072751;28;20047;-61
2021/10/15 01:17:43;;;;;;;14.48;3.05;;;;;;;;;;5083205;28;20391;-62
2021/10/15 01:20:09;;;;;;;15.82;2.53;;;;;;;;;;5093027;28;20040;-63
2021/10/15 01:22:35;;;;;;;15.73;2.28;;;;;;;;;;5092821;28;20031;-62
2021/10/15 01:25:01;;;;;;;10.45;2.30;;;;;;;;;;5092776;28;20074;-65
2021/10/15 01:27:27;;;;;;;16.45;2.10;;;;;;;;;;5068236;28;20021;-65
2021/10/15 01:29:53;;;;;;;7.57;2.05;;;;;;;;;;5071753;28;20067;-63
2021/10/15 01:32:20;;;;;;;8.82;2.65;;;;;;;;;;5072687;28;20024;-63
2021/10/15 01:34:46;;;;;;;6.90;2.17;;;;;;;;;;5072757;28;20028;-62
2021/10/15 01:37:13;;;;;;;8.75;2.88;;;;;;;;;;5072531;28;20471;-62
2021/10/15 01:39:39;;;;;;;11.32;2.38;;;;;;;;;;5072907;28;20070;-66
2021/10/15 01:42:05;;;;;;;6.35;2.03;;;;;;;;;;5072635;28;20024;-62
2021/10/15 01:44:31;;;;;;;6.15;2.33;;;;;;;;;;5072628;28;20036;-62
2021/10/15 01:46:57;;;;;;;13.50;2.38;;;;;;;;;;5072686;28;20020;-64
2021/10/15 01:49:23;;;;;;;17.15;2.38;;;;;;;;;;5054219;28;20028;-65
2021/10/15 01:51:49;;;;;;;7.93;2.30;;;;;;;;;;5072029;28;20029;-64
2021/10/15 01:54:15;;;;;;;9.77;2.60;;;;;;;;;;5072008;28;20025;-62
2021/10/15 01:56:41;;;;;;;8.00;2.28;;;;;;;;;;5054177;28;20376;-63
2021/10/15 01:59:08;;;;;;;7.15;2.20;;;;;;;;;;5053585;28;20106;-63
2021/10/15 02:01:34;;;;;;;6.47;2.28;;;;;;;;;;5070805;28;20028;-63
2021/10/15 02:04:00;;;;;;;9.63;2.83;;;;;;;;;;5071996;28;20380;-64
2021/10/15 02:06:26;;;;;;;11.77;2.33;;;;;;;;;;5072185;28;20024;-63
2021/10/15 02:08:52;;;;;;;6.13;2.40;;;;;;;;;;5091837;28;20017;-63
2021/10/15 02:11:18;;;;;;;10.02;2.55;;;;;;;;;;5074236;28;20361;-63
2021/10/15 02:13:44;;;;;;;17.83;3.08;;;;;;;;;;5092199;28;20440;-62
2021/10/15 02:16:10;;;;;;;8.95;2.45;;;;;;;;;;5092170;28;20032;-62
2021/10/15 02:18:36;;;;;;;7.05;2.33;;;;;;;;;;5074320;28;20021;-63
2021/10/15 02:21:02;;;;;;;7.50;2.17;;;;;;;;;;5072291;28;20372;-63
2021/10/15 02:23:28;;;;;;;8.25;2.35;;;;;;;;;;5071970;28;20384;-62
2021/10/15 02:25:54;;;;;;;11.63;2.50;;;;;;;;;;5071913;28;20024;-64
2021/10/15 02:28:24;;;;;;;13.65;2.35;;;;;;;;;;5071897;28;20017;-63
2021/10/15 02:30:54;;;;;;;10.82;2.58;;;;;;;;;;5053015;28;20032;-63
2021/10/15 02:33:20;;;;;;;10.52;2.35;;;;;;;;;;5053959;28;20545;-69
2021/10/15 02:35:46;;;;;;;8.02;2.42;;;;;;;;;;5072471;28;20060;-63
2021/10/15 02:38:12;;;;;;;6.25;2.20;;;;;;;;;;5071881;28;20047;-66
2021/10/15 02:40:38;;;;;;;8.23;2.42;;;;;;;;;;5071543;28;20040;-63
2021/10/15 02:43:04;;;;;;;7.25;2.03;;;;;;;;;;5071620;28;20028;-63
2021/10/15 02:45:31;;;;;;;7.70;2.30;;;;;;;;;;5070746;28;20043;-63
2021/10/15 02:47:57;;;;;;;6.80;2.65;;;;;;;;;;5071636;28;20078;-63
2021/10/15 02:50:23;;;;;;;7.88;2.38;;;;;;;;;;5053492;28;20036;-63
2021/10/15 02:52:49;;;;;;;7.22;2.20;;;;;;;;;;5071761;28;20025;-63
2021/10/15 02:55:15;;;;;;;5.35;1.98;;;;;;;;;;5071855;28;20033;-64
2021/10/15 02:57:41;;;;;;;6.70;2.30;;;;;;;;;;5072067;28;20027;-64
2021/10/15 03:00:08;;;;;;;7.90;2.53;;;;;;;;;;5071338;28;20075;-64
2021/10/15 03:02:34;;;;;;;6.47;2.63;;;;;;;;;;5071609;28;20457;-64
2021/10/15 03:05:00;;;;;;;9.98;2.42;;;;;;;;;;5071571;28;20035;-63
2021/10/15 03:07:26;;;;;;;12.48;2.45;;;;;;;;;;5074065;28;20016;-62
2021/10/15 03:09:51;;;;;;;8.40;2.22;;;;;;;;;;5075082;28;20098;-63
2021/10/15 03:12:17;;;;;;;8.10;2.42;;;;;;;;;;5075164;28;20028;-63
2021/10/15 03:14:44;;;;;;;15.02;3.15;;;;;;;;;;5075125;28;20024;-62
2021/10/15 03:17:12;;;;;;;10.35;2.10;;;;;;;;;;5079434;28;20475;-63
2021/10/15 03:19:38;;;;;;;8.20;2.50;;;;;;;;;;5095275;28;20123;-71
2021/10/15 03:22:04;;;;;;;8.65;2.60;;;;;;;;;;5095639;28;20048;-70
2021/10/15 03:24:30;;;;;;;12.23;2.47;;;;;;;;;;5095563;28;20020;-70
2021/10/15 03:26:56;;;;;;;35.45;3.58;;;;;;;;;;5095475;28;20099;-73
2021/10/15 03:29:22;;;;;;;23.90;3.38;;;;;;;;;;5095702;28;20814;-64
2021/10/15 03:31:48;;;;;;;32.03;3.20;;;;;;;;;;5079372;28;20032;-66
2021/10/15 03:34:17;;;;;;;62.30;3.72;;;;;;;;;;5074603;28;20457;-73
2021/10/15 03:36:43;;;;;;;29.58;3.70;;;;;;;;;;5056738;28;20468;-71
2021/10/15 03:39:11;;;;;;;21.60;3.25;;;;;;;;;;5056803;28;20029;-63
2021/10/15 03:41:37;;;;;;;13.38;2.70;;;;;;;;;;5055987;28;20648;-67
2021/10/15 03:44:03;;;;;;;18.65;3.30;;;;;;;;;;5072946;28;20417;-66
2021/10/15 03:46:29;;;;;;;17.60;3.17;;;;;;;;;;5074681;28;20025;-64
2021/10/15 03:48:55;;;;;;;16.60;2.63;;;;;;;;;;5074459;28;20609;-68
2021/10/15 03:51:21;;;;;;;11.00;2.42;;;;;;;;;;5057025;28;20033;-68
2021/10/15 03:53:47;;;;;;;17.65;2.50;;;;;;;;;;5056746;28;20032;-69
2021/10/15 03:56:13;;;;;;;16.38;2.80;;;;;;;;;;5074965;28;20027;-70
2021/10/15 03:58:39;;;;;;;7.78;2.28;;;;;;;;;;5074398;28;20059;-67
2021/10/15 04:01:05;;;;;;;9.20;2.60;;;;;;;;;;5074434;28;20020;-68
2021/10/15 04:03:31;;;;;;;7.82;2.20;;;;;;;;;;5073489;28;20365;-70
2021/10/15 04:05:58;;;;;;;7.53;2.53;;;;;;;;;;5074001;28;20119;-65
2021/10/15 04:08:24;;;;;;;11.43;2.10;;;;;;;;;;5056369;28;20754;-63
2021/10/15 04:10:50;;;;;;;8.10;2.10;;;;;;;;;;5074798;28;20039;-67
2021/10/15 04:13:16;;;;;;;16.25;2.35;;;;;;;;;;5074508;28;20055;-68
2021/10/15 04:15:41;;;;;;;10.82;2.10;;;;;;;;;;5074200;28;20056;-68
2021/10/15 04:18:07;;;;;;;10.23;2.47;;;;;;;;;;5074224;28;20021;-66
2021/10/15 04:20:33;;;;;;;7.00;2.08;;;;;;;;;;5056288;28;20032;-65
2021/10/15 04:22:59;;;;;;;9.05;1.92;;;;;;;;;;5074305;28;20047;-68
2021/10/15 04:25:25;;;;;;;11.55;2.33;;;;;;;;;;5074566;28;20070;-69
2021/10/15 04:27:51;;;;;;;8.90;2.10;;;;;;;;;;5074392;28;20031;-69
2021/10/15 04:30:17;;;;;;;13.93;2.42;;;;;;;;;;5073955;28;20606;-68
2021/10/15 04:32:43;;;;;;;14.38;2.28;;;;;;;;;;5072962;28;20032;-67
2021/10/15 04:35:09;;;;;;;5.30;2.10;;;;;;;;;;5073940;28;20025;-66
2021/10/15 04:37:35;;;;;;;8.45;2.42;;;;;;;;;;5073312;28;20047;-69
2021/10/15 04:40:01;;;;;;;7.72;2.45;;;;;;;;;;5039246;28;20032;-68
2021/10/15 04:42:27;;;;;;;5.95;2.00;;;;;;;;;;5073822;28;20482;-67
2021/10/15 04:44:53;;;;;;;12.30;2.40;;;;;;;;;;5073543;28;20063;-68
2021/10/15 04:47:19;;;;;;;8.15;2.25;;;;;;;;;;5073533;28;20020;-67
2021/10/15 04:49:45;;;;;;;7.68;2.22;;;;;;;;;;5073211;28;20502;-69
2021/10/15 04:52:11;;;;;;;7.05;2.08;;;;;;;;;;5064086;28;20028;-68
2021/10/15 04:54:37;;;;;;;6.70;2.00;;;;;;;;;;5072912;28;20060;-68
2021/10/15 04:57:03;;;;;;;5.88;2.20;;;;;;;;;;5073419;28;20033;-70
2021/10/15 04:59:29;;;;;;;6.35;1.95;;;;;;;;;;5073579;28;20138;-67
2021/10/15 05:01:55;;;;;;;7.30;2.35;;;;;;;;;;5073432;28;20455;-70
2021/10/15 05:04:21;;;;;;;11.43;2.35;;;;;;;;;;5073455;28;20099;-67
2021/10/15 05:06:47;;;;;;;8.48;2.45;;;;;;;;;;5073522;28;20029;-67
2021/10/15 05:09:25;;;;;;;8.85;2.67;;;;;;;;;;5073408;28;20029;-67
2021/10/15 05:11:52;;;;;;;6.55;2.25;;;;;;;;;;5055548;28;20036;-70
2021/10/15 05:14:18;;;;;;;11.13;2.08;;;;;;;;;;5073401;28;20044;-69
2021/10/15 05:16:44;;;;;;;6.82;1.83;;;;;;;;;;5073221;28;20388;-67
2021/10/15 05:19:09;;;;;;;7.32;2.10;;;;;;;;;;5055229;28;20075;-71
2021/10/15 05:21:36;;;;;;;7.00;2.17;;;;;;;;;;5058212;28;20488;-68
2021/10/15 05:24:02;;;;;;;5.68;2.00;;;;;;;;;;5056358;28;20037;-67
2021/10/15 05:26:28;;;;;;;11.38;2.40;;;;;;;;;;5072585;28;20047;-68
2021/10/15 05:28:53;;;;;;;5.82;1.95;;;;;;;;;;5072165;28;20384;-70
2021/10/15 05:31:19;;;;;;;10.50;2.53;;;;;;;;;;5072708;28;20028;-69
2021/10/15 05:33:45;;;;;;;6.90;2.05;;;;;;;;;;5072642;28;20599;-68
2021/10/15 05:36:11;;;;;;;5.22;2.05;;;;;;;;;;5054657;28;20040;-67
2021/10/15 05:38:37;;;;;;;8.40;2.28;;;;;;;;;;5066531;28;20023;-69
2021/10/15 05:41:03;;;;;;;6.18;2.00;;;;;;;;;;5072762;28;20028;-69
2021/10/15 05:43:29;;;;;;;6.00;2.03;;;;;;;;;;5072402;28;20468;-66
2021/10/15 05:45:55;;;;;;;6.20;2.15;;;;;;;;;;5072317;28;20094;-64
2021/10/15 05:48:23;;;;;;;5.30;1.92;;;;;;;;;;5072047;28;20020;-64
2021/10/15 05:50:49;;;;;;;5.10;2.30;;;;;;;;;;5072100;28;20031;-64
2021/10/15 05:53:18;;;;;;;6.00;2.00;;;;;;;;;;5071353;28;20107;-68
2021/10/15 06:01:14;;;;;;;6.43;2.08;;;;;;;;;;5072831;28;20039;-69
2021/10/15 06:03:43;;;;;;;3.50;1.80;;;;;;;;;;5072128;28;20056;-65
2021/10/15 06:14:28;;;;;;;6.55;2.05;;;;;;;;;;5072764;28;20055;-66
2021/10/15 06:16:57;;;;;;;8.43;2.17;;;;;;;;;;5072141;28;20482;-63
2021/10/15 06:19:28;;;;;;;9.40;2.03;;;;;;;;;;5072036;28;20105;-70
2021/10/15 06:21:54;;;;;;;12.32;1.70;;;;;;;;;;5072184;28;20021;-71
2021/10/15 06:24:20;;;;;;;10.95;1.75;;;;;;;;;;5071743;28;20056;-69
2021/10/15 06:26:46;;;;;;;8.95;1.92;;;;;;;;;;5071293;28;20020;-66
2021/10/15 06:29:12;;;;;;;6.93;1.80;;;;;;;;;;5074705;28;20035;-66
2021/10/15 06:31:40;;;;;;;13.73;1.85;;;;;;;;;;5083660;28;20032;-67
2021/10/15 06:34:06;;;;;;;7.28;1.92;;;;;;;;;;5085322;28;20468;-67
2021/10/15 06:36:32;;;;;;;7.63;1.70;;;;;;;;;;5092247;28;20032;-67
2021/10/15 06:38:58;;;;;;;13.05;2.03;;;;;;;;;;5086833;28;20436;-66
2021/10/15 06:41:24;;;;;;;9.10;1.77;;;;;;;;;;5093527;28;20028;-66
2021/10/15 06:43:50;;;;;;;8.30;1.40;;;;;;;;;;5082104;28;20381;-68
2021/10/15 06:46:16;;;;;;;11.27;1.50;;;;;;;;;;5055453;28;20465;-66
2021/10/15 06:48:42;;;;;;;7.70;1.60;;;;;;;;;;5055568;28;20021;-66
2021/10/15 06:51:08;;;;;;;20.45;1.77;;;;;;;;;;5055631;28;20029;-67
2021/10/15 06:53:34;;;;;;;17.77;1.77;;;;;;;;;;5054052;28;20017;-67
2021/10/15 06:56:00;;;;;;;39.35;1.80;;;;;;;;;;5068990;28;20097;-66
2021/10/15 06:58:26;;;;;;;22.30;1.80;;;;;;;;;;5095324;28;20115;-67
2021/10/15 07:00:52;;;;;;;25.67;1.70;;;;;;;;;;5056177;28;20044;-68
2021/10/15 07:03:19;;;;;;;9.52;1.35;;;;;;;;;;5055313;28;20037;-66
2021/10/15 07:05:46;;;;;;;21.42;1.63;;;;;;;;;;5068062;28;20365;-66
2021/10/15 07:08:12;;;;;;;6.13;1.30;;;;;;;;;;5074909;28;20427;-67
2021/10/15 07:10:39;;;;;;;12.75;1.55;;;;;;;;;;5074713;28;20032;-67
2021/10/15 07:13:05;;;;;;;11.40;1.35;;;;;;;;;;5075179;28;20047;-67
2021/10/15 07:15:31;;;;;;;17.88;1.42;;;;;;;;;;5075081;28;20025;-66
2021/10/15 07:17:58;;;;;;;22.35;1.73;;;;;;;;;;5087309;28;20020;-65
2021/10/15 07:20:27;;;;;;;5.88;1.30;;;;;;;;;;5076976;28;20043;-66
2021/10/15 07:22:54;;;;;;;17.38;1.40;;;;;;;;;;5094969;28;20352;-67
2021/10/15 07:25:20;;;;;;;13.32;1.70;;;;;;;;;;5095246;28;20514;-66
2021/10/15 07:27:46;;;;;;;7.35;1.40;;;;;;;;;;5068032;28;20058;-67
2021/10/15 07:30:12;;;;;;;14.10;1.38;;;;;;;;;;5073519;28;20541;-66
2021/10/15 07:32:38;;;;;;;6.47;1.08;;;;;;;;;;5074666;28;20094;-67
2021/10/15 07:35:04;;;;;;;11.55;1.40;;;;;;;;;;5057159;28;20028;-66
2021/10/15 07:37:30;;;;;;;5.82;0.95;;;;;;;;;;5075239;28;20028;-66
2021/10/15 07:39:56;;;;;;;6.13;1.27;;;;;;;;;;5057267;28;20087;-66
2021/10/15 07:42:23;;;;;;;13.18;1.10;;;;;;;;;;5074960;28;20028;-67
2021/10/15 07:44:49;;;;;;;13.25;1.27;;;;;;;;;;5074977;28;20016;-67
2021/10/15 07:47:15;;;;;;;10.10;1.58;;;;;;;;;;5078293;28;20039;-67
2021/10/15 07:49:42;;;;;;;8.65;1.35;;;;;;;;;;5090519;28;20032;-67
2021/10/15 07:52:08;;;;;;;7.07;1.23;;;;;;;;;;5075248;28;20025;-67
2021/10/15 07:54:34;;;;;;;9.00;1.17;;;;;;;;;;5058747;28;20147;-67
2021/10/15 07:57:01;;;;;;;4.50;1.08;;;;;;;;;;5074168;28;20021;-66
2021/10/15 07:59:28;;;;;;;6.78;1.50;;;;;;;;;;5073704;28;20052;-66
2021/10/15 08:01:54;;;;;;;11.38;1.27;;;;;;;;;;5073131;28;20031;-67
2021/10/15 08:04:20;;;;;;;7.88;0.85;;;;;;;;;;5073915;28;20047;-67
2021/10/15 08:06:47;;;;;;;7.93;0.90;;;;;;;;;;5074442;28;20051;-67
2021/10/15 08:09:13;;;;;;;8.23;1.00;;;;;;;;;;5073906;28;20032;-66
2021/10/15 08:11:39;;;;;;;9.52;1.10;;;;;;;;;;5074254;28;20158;-66
2021/10/15 08:14:05;;;;;;;8.60;1.33;;;;;;;;;;5073797;28;20115;-66
2021/10/15 08:16:31;;;;;;;15.15;1.30;;;;;;;;;;5074004;28;20020;-67
2021/10/15 08:18:57;;;;;;;2.60;0.90;;;;;;;;;;5093881;28;20036;-66
2021/10/15 08:21:23;;;;;;;3.30;0.90;;;;;;;;;;5080958;28;20025;-67
2021/10/15 08:23:49;;;;;;;8.25;1.15;;;;;;;;;;5074290;28;20048;-67
2021/10/15 08:26:15;;;;;;;4.55;0.70;;;;;;;;;;5073757;28;20025;-67
2021/10/15 08:28:41;;;;;;;5.30;1.10;;;;;;;;;;5072408;28;20021;-67
2021/10/15 08:31:07;;;;;;;10.82;1.30;;;;;;;;;;5073628;28;20024;-67
2021/10/15 08:33:34;;;;;;;8.07;1.10;;;;;;;;;;5073769;28;20028;-67
2021/10/15 08:36:00;;;;;;;3.17;1.00;;;;;;;;;;5073319;28;20028;-67
2021/10/15 08:38:26;;;;;;;5.95;1.02;;;;;;;;;;5073323;28;20016;-67
2021/10/15 08:40:52;;;;;;;5.85;0.98;;;;;;;;;;5073322;28;20032;-67
2021/10/15 08:43:18;;;;;;;7.40;1.13;;;;;;;;;;5070414;28;20033;-68
2021/10/15 08:45:44;;;;;;;6.78;1.20;;;;;;;;;;5070664;28;20025;-67
2021/10/15 08:48:10;;;;;;;5.20;0.90;;;;;;;;;;5073433;28;20458;-66
2021/10/15 08:50:36;;;;;;;3.42;0.77;;;;;;;;;;5075905;28;20036;-67
2021/10/15 08:53:04;;;;;;;3.72;0.80;;;;;;;;;;5055330;28;20016;-66
2021/10/15 08:55:30;;;;;;;4.28;1.10;;;;;;;;;;5078306;28;20039;-66
2021/10/15 08:57:57;;;;;;;7.20;1.08;;;;;;;;;;5073099;28;20115;-67
2021/10/15 09:00:31;;;;;;;4.38;1.10;;;;;;;;;;5071644;28;20052;-66
2021/10/15 09:03:18;;;;;;;5.55;1.35;;;;;;;;;;5073013;28;20024;-66
2021/10/15 09:05:54;;;;;;;5.63;1.10;;;;;;;;;;5072156;28;20067;-66
2021/10/15 09:08:21;;;;;;;2.90;1.00;;;;;;;;;;5072774;28;20559;-67
2021/10/15 09:10:47;;;;;;;6.45;1.08;;;;;;;;;;5072595;28;20017;-66
2021/10/15 09:13:17;;;;;;;4.85;0.93;;;;;;;;;;5054773;28;20024;-66
2021/10/15 09:15:43;;;;;;;5.32;1.00;;;;;;;;;;5071867;28;20016;-66
2021/10/15 09:18:20;;;;;;;4.55;0.82;;;;;;;;;;5052567;28;20032;-66
2021/10/15 09:20:50;;;;;;;6.43;1.17;;;;;;;;;;5052814;28;20037;-66
2021/10/15 09:23:17;;;;;;;4.13;1.00;;;;;;;;;;5052655;28;20021;-67
2021/10/15 09:25:44;;;;;;;5.35;1.25;;;;;;;;;;5066360;28;20502;-67
2021/10/15 09:28:15;;;;;;;6.65;1.65;;;;;;;;;;5072452;28;20104;-66
2021/10/15 09:30:42;;;;;;;5.00;1.13;;;;;;;;;;5072394;28;20028;-66
2021/10/15 09:33:09;;;;;;;4.90;1.30;;;;;;;;;;5072499;28;20029;-66
2021/10/15 09:35:35;;;;;;;3.63;1.00;;;;;;;;;;5072537;28;20069;-66
2021/10/15 09:38:03;;;;;;;2.22;0.88;;;;;;;;;;5071306;28;20016;-66
2021/10/15 09:40:35;;;;;;;3.90;0.90;;;;;;;;;;5051399;28;20611;-65
2021/10/15 09:43:04;;;;;;;4.75;0.95;;;;;;;;;;5054792;28;20032;-66
2021/10/15 09:45:38;;;;;;;4.70;0.80;;;;;;;;;;5072230;28;20020;-65
2021/10/15 09:48:24;;;;;;;5.78;0.90;;;;;;;;;;5072130;28;20025;-65
2021/10/15 09:51:11;;;;;;;11.98;1.20;;;;;;;;;;5072343;28;20027;-68
2021/10/15 09:53:37;;;;;;;20.55;1.20;;;;;;;;;;5072087;28;20038;-67
2021/10/15 09:56:03;;;;;;;8.77;1.25;;;;;;;;;;5072017;28;20024;-67
2021/10/15 09:58:29;;;;;;;16.83;1.08;;;;;;;;;;5072096;28;20036;-66
2021/10/15 10:00:56;;;;;;;10.68;1.15;;;;;;;;;;5071921;28;20068;-65
2021/10/15 10:03:28;;;;;;;10.52;1.08;;;;;;;;;;5053853;28;20437;-66
2021/10/15 10:05:54;;;;;;;9.25;1.15;;;;;;;;;;5072374;28;20024;-66
2021/10/15 10:08:20;;;;;;;7.07;1.42;;;;;;;;;;5071892;28;20074;-66
2021/10/15 10:10:47;;;;;;;5.45;1.48;;;;;;;;;;5070819;28;20067;-65
2021/10/15 10:13:14;;;;;;;9.70;1.05;;;;;;;;;;5072189;28;20027;-66
2021/10/15 10:15:42;;;;;;;6.85;1.30;;;;;;;;;;5073927;28;20017;-67
2021/10/15 10:18:25;;;;;;;13.25;1.40;;;;;;;;;;5076499;28;20039;-68
2021/10/15 10:20:57;;;;;;;5.95;1.45;;;;;;;;;;5058112;28;20052;-66
2021/10/15 10:23:29;;;;;;;8.85;1.25;;;;;;;;;;5076244;28;20052;-65
2021/10/15 10:26:02;;;;;;;6.18;1.15;;;;;;;;;;5073400;28;20025;-67
2021/10/15 10:28:29;;;;;;;6.57;1.20;;;;;;;;;;5076048;28;20052;-67
2021/10/15 10:30:57;;;;;;;8.68;1.15;;;;;;;;;;5076208;28;20069;-66
2021/10/15 10:33:24;;;;;;;7.72;1.33;;;;;;;;;;5075977;28;20486;-66
2021/10/15 10:35:51;;;;;;;8.90;0.90;;;;;;;;;;5075569;28;20403;-67
2021/10/15 10:38:20;;;;;;;6.15;1.30;;;;;;;;;;5076122;28;20020;-67
2021/10/15 10:41:01;;;;;;;6.85;1.50;;;;;;;;;;5075978;28;20119;-66
2021/10/15 10:43:27;;;;;;;9.23;1.40;;;;;;;;;;5075847;28;20468;-66
2021/10/15 10:46:09;;;;;;;6.72;0.90;;;;;;;;;;5058118;28;20107;-66
2021/10/15 10:48:54;;;;;;;5.78;1.13;;;;;;;;;;5055787;28;20457;-66
2021/10/15 10:51:22;;;;;;;10.77;1.10;;;;;;;;;;5055647;28;20393;-65
2021/10/15 10:56:41;;;;;;;6.25;1.02;;;;;;;;;;5055976;28;20059;-66
2021/10/15 10:59:25;;;;;;;14.57;1.20;;;;;;;;;;5055274;28;20044;-66
2021/10/15 11:01:53;;;;;;;9.50;1.42;;;;;;;;;;5072555;28;20028;-66
2021/10/15 11:04:35;;;;;;;10.30;1.27;;;;;;;;;;5075509;28;20032;-66
2021/10/15 11:07:22;;;;;;;15.50;1.30;;;;;;;;;;5075475;28;20032;-67
2021/10/15 11:09:48;;;;;;;5.32;1.20;;;;;;;;;;5075649;28;20028;-66
2021/10/15 11:12:34;;;;;;;9.82;1.48;;;;;;;;;;5075488;28;20020;-66
2021/10/15 11:15:00;;;;;;;6.00;1.00;;;;;;;;;;5073666;28;20043;-67
2021/10/15 11:17:28;;;;;;;24.05;1.80;;;;;;;;;;5081844;28;20026;-67
2021/10/15 11:20:09;;;;;;;8.70;1.48;;;;;;;;;;5077096;28;20035;-66
2021/10/15 11:22:35;;;;;;;12.15;1.20;;;;;;;;;;5076888;28;20047;-66
2021/10/15 11:25:01;;;;;;;6.25;1.15;;;;;;;;;;5095414;28;20028;-66
2021/10/15 11:27:27;;;;;;;13.05;1.10;;;;;;;;;;5094453;28;20022;-69
2021/10/15 11:29:58;;;;;;;6.30;1.27;;;;;;;;;;5094956;28;20035;-68
2021/10/15 11:32:38;;;;;;;5.25;1.25;;;;;;;;;;5082258;28;20509;-68
2021/10/15 11:35:15;;;;;;;15.85;1.38;;;;;;;;;;5074730;28;20052;-68
2021/10/15 11:37:41;;;;;;;9.07;1.65;;;;;;;;;;5074384;28;20025;-68
2021/10/15 11:40:13;;;;;;;12.73;1.13;;;;;;;;;;5074528;28;20035;-68
2021/10/15 11:42:39;;;;;;;10.98;1.13;;;;;;;;;;5056412;28;20032;-67
2021/10/15 11:45:23;;;;;;;11.07;1.55;;;;;;;;;;5074684;28;20079;-68
2021/10/15 11:47:59;;;;;;;11.02;2.45;;;;;;;;;;5073458;28;20036;-67
2021/10/15 11:50:37;;;;;;;12.80;2.15;;;;;;;;;;5074106;28;20032;-66
2021/10/15 11:53:03;;;;;;;11.30;2.30;;;;;;;;;;5073890;28;20380;-66
2021/10/15 11:55:36;;;;;;;12.05;1.88;;;;;;;;;;5073941;28;20020;-65
2021/10/15 11:58:34;;;;;;;14.18;1.58;;;;;;;;;;5074068;28;20025;-66
2021/10/15 12:01:03;;;;;;;8.40;1.55;;;;;;;;;;5051075;28;20083;-66
2021/10/15 12:03:29;;;;;;;8.13;1.63;;;;;;;;;;5054853;28;20036;-66
2021/10/15 12:05:56;;;;;;;9.95;1.50;;;;;;;;;;5073635;28;20013;-66
2021/10/15 12:08:23;;;;;;;11.65;1.60;;;;;;;;;;5073355;28;20028;-68
2021/10/15 12:10:50;;;;;;;11.43;1.55;;;;;;;;;;5073427;28;20082;-66
2021/10/15 12:13:16;;;;;;;7.05;1.48;;;;;;;;;;5073810;28;20016;-65
2021/10/15 12:15:42;;;;;;;7.85;1.45;;;;;;;;;;5073523;28;20060;-66
2021/10/15 12:18:08;;;;;;;5.53;1.80;;;;;;;;;;5073507;28;20075;-65
2021/10/15 12:20:35;;;;;;;16.48;1.67;;;;;;;;;;5055659;28;20123;-66
2021/10/15 12:23:04;;;;;;;7.97;1.40;;;;;;;;;;5073647;28;20028;-66
2021/10/15 12:25:30;;;;;;;11.27;1.75;;;;;;;;;;5073604;28;20033;-66
2021/10/15 12:27:56;;;;;;;9.23;1.52;;;;;;;;;;5073475;28;20023;-65
2021/10/15 12:30:25;;;;;;;9.65;1.42;;;;;;;;;;5073663;28;20028;-65
2021/10/15 12:32:52;;;;;;;8.57;1.65;;;;;;;;;;5054691;28;20021;-65
2021/10/15 12:35:24;;;;;;;9.93;2.13;;;;;;;;;;5073541;28;20353;-66
2021/10/15 12:37:50;;;;;;;8.88;1.75;;;;;;;;;;5073226;28;20367;-65
2021/10/15 12:40:23;;;;;;;12.32;1.73;;;;;;;;;;5072384;28;20037;-66
2021/10/15 12:42:58;;;;;;;10.48;1.73;;;;;;;;;;5073490;28;20521;-65
2021/10/15 12:45:25;;;;;;;11.25;2.10;;;;;;;;;;5055559;28;20503;-65
2021/10/15 12:48:14;;;;;;;9.00;1.77;;;;;;;;;;5072222;28;20063;-65
2021/10/15 12:50:41;;;;;;;6.70;1.58;;;;;;;;;;5053919;28;20025;-65
2021/10/15 12:53:18;;;;;;;10.98;1.90;;;;;;;;;;5035560;28;20044;-66
2021/10/15 12:55:52;;;;;;;9.70;1.50;;;;;;;;;;5053471;28;20036;-67
2021/10/15 12:58:18;;;;;;;9.98;1.55;;;;;;;;;;5035304;28;20511;-67
2021/10/15 13:00:55;;;;;;;9.40;1.70;;;;;;;;;;5053329;28;20032;-65
2021/10/15 13:03:21;;;;;;;8.85;1.92;;;;;;;;;;5053352;28;20090;-66
2021/10/15 13:05:48;;;;;;;8.85;1.25;;;;;;;;;;5053193;28;20021;-66
2021/10/15 13:08:15;;;;;;;9.07;1.65;;;;;;;;;;5053191;28;20052;-67
2021/10/15 13:10:41;;;;;;;7.68;1.60;;;;;;;;;;5053236;28;20032;-66
2021/10/15 13:13:07;;;;;;;10.30;1.95;;;;;;;;;;5053187;28;20029;-66
2021/10/15 13:15:33;;;;;;;7.90;1.50;;;;;;;;;;5053207;28;20355;-66
2021/10/15 13:17:59;;;;;;;14.25;2.00;;;;;;;;;;5077353;28;20059;-66
2021/10/15 13:20:25;;;;;;;10.73;1.85;;;;;;;;;;5072855;28;20041;-67
2021/10/15 13:22:52;;;;;;;11.55;2.00;;;;;;;;;;5055136;28;20812;-67
2021/10/15 13:25:19;;;;;;;8.02;1.52;;;;;;;;;;5073021;28;20387;-66
2021/10/15 13:27:45;;;;;;;14.07;1.98;;;;;;;;;;5072951;28;20031;-67
2021/10/15 13:30:11;;;;;;;10.27;1.75;;;;;;;;;;5073166;28;20028;-66
2021/10/15 13:32:38;;;;;;;11.57;1.98;;;;;;;;;;5072802;28;20024;-67
2021/10/15 13:35:05;;;;;;;17.63;2.83;;;;;;;;;;5072833;28;20028;-68
2021/10/15 13:37:34;;;;;;;11.82;1.98;;;;;;;;;;5073105;28;20024;-66
2021/10/15 13:40:01;;;;;;;11.05;1.88;;;;;;;;;;5072879;28;20090;-66
2021/10/15 13:49:58;;;;;;;13.60;2.08;;;;;;;;;;5071616;28;20111;-66
2021/10/15 13:52:25;;;;;;;12.65;2.17;;;;;;;;;;5054744;28;20020;-67
2021/10/15 13:54:52;;;;;;;12.48;2.20;;;;;;;;;;5072596;28;20099;-67
2021/10/15 13:57:20;;;;;;;10.95;1.75;;;;;;;;;;5072766;28;20028;-67
2021/10/15 13:59:53;;;;;;;10.43;1.90;;;;;;;;;;5072286;28;20547;-68
2021/10/15 14:02:21;;;;;;;12.57;1.88;;;;;;;;;;5073036;28;20135;-66
2021/10/15 14:04:47;;;;;;;14.10;2.03;;;;;;;;;;5072539;28;20107;-66
2021/10/15 14:07:15;;;;;;;12.57;2.10;;;;;;;;;;5072751;28;20029;-68
2021/10/15 14:09:42;;;;;;;7.38;1.58;;;;;;;;;;5072704;28;20095;-66
2021/10/15 14:12:11;;;;;;;9.98;1.73;;;;;;;;;;5072774;28;20066;-68
2021/10/15 14:14:40;;;;;;;12.93;1.65;;;;;;;;;;5072767;28;20024;-67
2021/10/15 14:17:07;;;;;;;8.23;1.55;;;;;;;;;;5072526;28;20380;-67
2021/10/15 14:19:33;;;;;;;9.05;1.48;;;;;;;;;;5071491;28;20119;-67
2021/10/15 14:22:00;;;;;;;11.50;2.25;;;;;;;;;;5072775;28;20035;-67
2021/10/15 14:24:26;;;;;;;6.68;1.60;;;;;;;;;;5072432;28;20050;-67
2021/10/15 14:26:52;;;;;;;11.43;2.00;;;;;;;;;;5072671;28;20028;-66
2021/10/15 14:29:18;;;;;;;8.18;1.63;;;;;;;;;;5072287;28;20396;-67
2021/10/15 14:31:45;;;;;;;8.35;1.60;;;;;;;;;;5072120;28;20029;-66
2021/10/15 14:34:12;;;;;;;12.35;1.92;;;;;;;;;;5072128;28;20066;-67
2021/10/15 14:36:37;;;;;;;9.10;1.80;;;;;;;;;;5072727;28;20029;-66
2021/10/15 14:39:04;;;;;;;8.05;1.80;;;;;;;;;;5072397;28;20380;-68
2021/10/15 14:41:31;;;;;;;10.93;1.65;;;;;;;;;;5072270;28;20028;-66
2021/10/15 14:43:57;;;;;;;11.82;1.90;;;;;;;;;;5072542;28;20017;-67
2021/10/15 14:46:23;;;;;;;8.40;1.40;;;;;;;;;;5072436;28;20400;-67
2021/10/15 14:48:49;;;;;;;10.98;1.63;;;;;;;;;;5072377;28;20406;-66
2021/10/15 14:51:16;;;;;;;9.52;1.70;;;;;;;;;;5071130;28;20039;-67
2021/10/15 14:53:42;;;;;;;9.45;1.92;;;;;;;;;;5072329;28;20021;-67
2021/10/15 14:56:08;;;;;;;8.10;1.52;;;;;;;;;;5072191;28;20035;-67
2021/10/15 14:58:34;;;;;;;7.32;1.20;;;;;;;;;;5072171;28;20098;-67
2021/10/15 15:01:03;;;;;;;9.45;2.08;;;;;;;;;;5072173;28;20468;-67
2021/10/15 15:03:29;;;;;;;8.98;1.65;;;;;;;;;;5074976;28;20025;-67
2021/10/15 15:05:55;;;;;;;7.15;1.60;;;;;;;;;;5075625;28;20032;-67